sensor_id;sensor_type;location;lat;lon;timestamp;P1;durP1;ratioP1;P2;durP2;ratioP2
7823;SDS011;3957;48.61947800;9.05303100;2023-02-22T00:00:05;9.07;;;5.03;;
7823;SDS011;3957;48.61947800;9.05303100;2023-02-22T00:01:18;8.90;;;4.50;;
7823;SDS011;3957;48.61947800;9.05303100;2023-02-22T00:02:22;7.93;;;4.65;;
7823;SDS011;3957;48.61947800;9.05303100;2023-02-22T00:03:28;9.98;;;5.00;;
7823;SDS011;3957;48.61947800;9.05303100;2023-02-22T00:04:31;6.90;;;4.70;;
7823;SDS011;3957;48.61947800;9.05303100;2023-02-22T00:05:34;8.73;;;4.75;;
7823;SDS011;3957;48.61947800;9.05303100;2023-02-22T00:06:35;7.73;;;4.00;;
7823;SDS011;3957;48.61947800;9.05303100;2023-02-22T00:07:35;8.00;;;5.05;;
7823;SDS011;3957;48.61947800;9.05303100;2023-02-22T00:08:36;8.27;;;4.87;;
7823;SDS011;3957;48.61947800;9.05303100;2023-02-22T00:09:36;8.60;;;4.70;;
7823;SDS011;3957;48.61947800;9.05303100;2023-02-22T00:10:36;8.03;;;5.13;;
7823;SDS011;3957;48.61947800;9.05303100;2023-02-22T00:11:37;8.23;;;4.80;;
7823;SDS011;3957;48.61947800;9.05303100;2023-02-22T00:12:39;8.73;;;4.72;;
7823;SDS011;3957;48.61947800;9.05303100;2023-02-22T00:13:40;6.68;;;4.55;;
7823;SDS011;3957;48.61947800;9.05303100;2023-02-22T00:14:44;7.32;;;4.32;;
7823;SDS011;3957;48.61947800;9.05303100;2023-02-22T00:15:44;7.93;;;4.80;;
7823;SDS011;3957;48.61947800;9.05303100;2023-02-22T00:16:44;10.17;;;4.70;;
7823;SDS011;3957;48.61947800;9.05303100;2023-02-22T00:17:45;6.60;;;4.15;;
7823;SDS011;3957;48.61947800;9.05303100;2023-02-22T00:18:46;7.60;;;4.60;;
7823;SDS011;3957;48.61947800;9.05303100;2023-02-22T00:19:47;7.25;;;4.88;;
7823;SDS011;3957;48.61947800;9.05303100;2023-02-22T00:20:49;7.05;;;4.57;;
7823;SDS011;3957;48.61947800;9.05303100;2023-02-22T00:21:52;8.10;;;4.57;;
7823;SDS011;3957;48.61947800;9.05303100;2023-02-22T00:22:53;10.63;;;4.63;;
7823;SDS011;3957;48.61947800;9.05303100;2023-02-22T00:23:54;7.65;;;4.50;;
7823;SDS011;3957;48.61947800;9.05303100;2023-02-22T00:24:55;7.97;;;4.33;;
7823;SDS011;3957;48.61947800;9.05303100;2023-02-22T00:25:57;8.85;;;4.50;;
7823;SDS011;3957;48.61947800;9.05303100;2023-02-22T00:26:59;8.63;;;4.72;;
7823;SDS011;3957;48.61947800;9.05303100;2023-02-22T00:27:59;7.88;;;4.78;;
7823;SDS011;3957;48.61947800;9.05303100;2023-02-22T00:29:00;7.28;;;5.22;;
7823;SDS011;3957;48.61947800;9.05303100;2023-02-22T00:30:01;11.00;;;5.25;;
7823;SDS011;3957;48.61947800;9.05303100;2023-02-22T00:31:05;7.15;;;5.00;;
7823;SDS011;3957;48.61947800;9.05303100;2023-02-22T00:32:06;7.10;;;4.68;;
7823;SDS011;3957;48.61947800;9.05303100;2023-02-22T00:33:07;8.47;;;4.60;;
7823;SDS011;3957;48.61947800;9.05303100;2023-02-22T00:34:07;8.73;;;4.85;;
7823;SDS011;3957;48.61947800;9.05303100;2023-02-22T00:35:08;8.83;;;4.90;;
7823;SDS011;3957;48.61947800;9.05303100;2023-02-22T00:36:09;9.00;;;4.63;;
7823;SDS011;3957;48.61947800;9.05303100;2023-02-22T00:37:10;7.00;;;5.03;;
7823;SDS011;3957;48.61947800;9.05303100;2023-02-22T00:38:11;10.02;;;4.57;;
7823;SDS011;3957;48.61947800;9.05303100;2023-02-22T00:39:14;9.80;;;5.40;;
7823;SDS011;3957;48.61947800;9.05303100;2023-02-22T00:40:16;8.77;;;5.05;;
7823;SDS011;3957;48.61947800;9.05303100;2023-02-22T00:41:18;7.40;;;4.80;;
7823;SDS011;3957;48.61947800;9.05303100;2023-02-22T00:42:18;7.72;;;5.15;;
7823;SDS011;3957;48.61947800;9.05303100;2023-02-22T00:43:19;7.20;;;4.53;;
7823;SDS011;3957;48.61947800;9.05303100;2023-02-22T00:44:21;9.95;;;4.70;;
7823;SDS011;3957;48.61947800;9.05303100;2023-02-22T00:45:22;7.70;;;4.63;;
7823;SDS011;3957;48.61947800;9.05303100;2023-02-22T00:46:24;7.70;;;4.53;;
7823;SDS011;3957;48.61947800;9.05303100;2023-02-22T00:47:26;8.10;;;4.38;;
7823;SDS011;3957;48.61947800;9.05303100;2023-02-22T00:48:27;7.20;;;4.63;;
7823;SDS011;3957;48.61947800;9.05303100;2023-02-22T00:49:28;7.13;;;4.60;;
7823;SDS011;3957;48.61947800;9.05303100;2023-02-22T00:50:29;7.77;;;4.70;;
7823;SDS011;3957;48.61947800;9.05303100;2023-02-22T00:51:30;7.20;;;4.60;;
7823;SDS011;3957;48.61947800;9.05303100;2023-02-22T00:52:32;7.43;;;5.00;;
7823;SDS011;3957;48.61947800;9.05303100;2023-02-22T00:53:35;7.65;;;4.53;;
7823;SDS011;3957;48.61947800;9.05303100;2023-02-22T00:54:35;6.90;;;4.70;;
7823;SDS011;3957;48.61947800;9.05303100;2023-02-22T00:55:36;6.63;;;4.67;;
7823;SDS011;3957;48.61947800;9.05303100;2023-02-22T00:56:37;6.75;;;4.10;;
7823;SDS011;3957;48.61947800;9.05303100;2023-02-22T00:57:37;6.83;;;4.13;;
7823;SDS011;3957;48.61947800;9.05303100;2023-02-22T00:58:37;9.27;;;4.75;;
7823;SDS011;3957;48.61947800;9.05303100;2023-02-22T00:59:38;8.82;;;4.50;;
7823;SDS011;3957;48.61947800;9.05303100;2023-02-22T01:00:40;7.43;;;4.00;;
7823;SDS011;3957;48.61947800;9.05303100;2023-02-22T01:01:41;9.90;;;4.88;;
7823;SDS011;3957;48.61947800;9.05303100;2023-02-22T01:02:42;7.03;;;4.57;;
7823;SDS011;3957;48.61947800;9.05303100;2023-02-22T01:03:42;8.57;;;4.60;;
7823;SDS011;3957;48.61947800;9.05303100;2023-02-22T01:04:43;6.88;;;4.57;;
7823;SDS011;3957;48.61947800;9.05303100;2023-02-22T01:05:45;7.20;;;4.10;;
7823;SDS011;3957;48.61947800;9.05303100;2023-02-22T01:06:46;7.68;;;4.13;;
7823;SDS011;3957;48.61947800;9.05303100;2023-02-22T01:07:47;8.77;;;4.93;;
7823;SDS011;3957;48.61947800;9.05303100;2023-02-22T01:08:48;8.23;;;4.78;;
7823;SDS011;3957;48.61947800;9.05303100;2023-02-22T01:09:50;7.22;;;4.20;;
7823;SDS011;3957;48.61947800;9.05303100;2023-02-22T01:10:52;6.22;;;3.88;;
7823;SDS011;3957;48.61947800;9.05303100;2023-02-22T01:11:53;8.27;;;4.32;;
7823;SDS011;3957;48.61947800;9.05303100;2023-02-22T01:12:55;7.55;;;4.20;;
7823;SDS011;3957;48.61947800;9.05303100;2023-02-22T01:13:56;7.05;;;4.60;;
7823;SDS011;3957;48.61947800;9.05303100;2023-02-22T01:14:56;7.57;;;4.13;;
7823;SDS011;3957;48.61947800;9.05303100;2023-02-22T01:15:57;7.07;;;4.03;;
7823;SDS011;3957;48.61947800;9.05303100;2023-02-22T01:16:59;6.97;;;4.00;;
7823;SDS011;3957;48.61947800;9.05303100;2023-02-22T01:18:00;6.63;;;3.80;;
7823;SDS011;3957;48.61947800;9.05303100;2023-02-22T01:19:00;8.90;;;4.73;;
7823;SDS011;3957;48.61947800;9.05303100;2023-02-22T01:20:01;7.23;;;4.53;;
7823;SDS011;3957;48.61947800;9.05303100;2023-02-22T01:21:02;6.05;;;4.28;;
7823;SDS011;3957;48.61947800;9.05303100;2023-02-22T01:22:03;8.13;;;4.63;;
7823;SDS011;3957;48.61947800;9.05303100;2023-02-22T01:23:04;9.43;;;4.15;;
7823;SDS011;3957;48.61947800;9.05303100;2023-02-22T01:24:08;7.20;;;4.18;;
7823;SDS011;3957;48.61947800;9.05303100;2023-02-22T01:25:09;7.00;;;4.00;;
7823;SDS011;3957;48.61947800;9.05303100;2023-02-22T01:26:10;8.25;;;4.18;;
7823;SDS011;3957;48.61947800;9.05303100;2023-02-22T01:27:11;6.10;;;4.10;;
7823;SDS011;3957;48.61947800;9.05303100;2023-02-22T01:28:11;5.87;;;3.77;;
7823;SDS011;3957;48.61947800;9.05303100;2023-02-22T01:29:13;5.97;;;4.00;;
7823;SDS011;3957;48.61947800;9.05303100;2023-02-22T01:30:16;5.75;;;3.70;;
7823;SDS011;3957;48.61947800;9.05303100;2023-02-22T01:31:20;6.03;;;3.72;;
7823;SDS011;3957;48.61947800;9.05303100;2023-02-22T01:32:22;5.57;;;3.60;;
7823;SDS011;3957;48.61947800;9.05303100;2023-02-22T01:33:23;5.23;;;3.60;;
7823;SDS011;3957;48.61947800;9.05303100;2023-02-22T01:34:26;7.20;;;4.07;;
7823;SDS011;3957;48.61947800;9.05303100;2023-02-22T01:35:27;6.17;;;3.97;;
7823;SDS011;3957;48.61947800;9.05303100;2023-02-22T01:36:31;6.32;;;3.70;;
7823;SDS011;3957;48.61947800;9.05303100;2023-02-22T01:37:31;6.47;;;3.67;;
7823;SDS011;3957;48.61947800;9.05303100;2023-02-22T01:38:33;8.93;;;3.97;;
7823;SDS011;3957;48.61947800;9.05303100;2023-02-22T01:39:33;5.30;;;3.73;;
7823;SDS011;3957;48.61947800;9.05303100;2023-02-22T01:40:37;6.32;;;3.42;;
7823;SDS011;3957;48.61947800;9.05303100;2023-02-22T01:41:40;6.07;;;3.38;;
7823;SDS011;3957;48.61947800;9.05303100;2023-02-22T01:42:41;6.67;;;4.20;;
7823;SDS011;3957;48.61947800;9.05303100;2023-02-22T01:43:43;6.50;;;4.03;;
7823;SDS011;3957;48.61947800;9.05303100;2023-02-22T01:45:19;6.68;;;4.05;;
7823;SDS011;3957;48.61947800;9.05303100;2023-02-22T01:46:26;5.55;;;3.65;;
7823;SDS011;3957;48.61947800;9.05303100;2023-02-22T01:47:28;6.72;;;3.67;;
7823;SDS011;3957;48.61947800;9.05303100;2023-02-22T01:49:40;4.68;;;3.30;;
7823;SDS011;3957;48.61947800;9.05303100;2023-02-22T01:51:07;5.07;;;3.30;;
7823;SDS011;3957;48.61947800;9.05303100;2023-02-22T01:52:10;5.15;;;2.92;;
7823;SDS011;3957;48.61947800;9.05303100;2023-02-22T01:53:15;5.63;;;3.50;;
7823;SDS011;3957;48.61947800;9.05303100;2023-02-22T01:54:22;5.20;;;3.40;;
7823;SDS011;3957;48.61947800;9.05303100;2023-02-22T01:55:29;5.32;;;3.08;;
7823;SDS011;3957;48.61947800;9.05303100;2023-02-22T01:56:31;4.90;;;3.53;;
7823;SDS011;3957;48.61947800;9.05303100;2023-02-22T01:57:36;6.63;;;3.85;;
7823;SDS011;3957;48.61947800;9.05303100;2023-02-22T01:58:38;6.03;;;3.47;;
7823;SDS011;3957;48.61947800;9.05303100;2023-02-22T01:59:42;5.68;;;3.40;;
7823;SDS011;3957;48.61947800;9.05303100;2023-02-22T02:00:44;7.25;;;4.05;;
7823;SDS011;3957;48.61947800;9.05303100;2023-02-22T02:01:45;5.00;;;3.40;;
7823;SDS011;3957;48.61947800;9.05303100;2023-02-22T02:02:50;6.15;;;3.50;;
7823;SDS011;3957;48.61947800;9.05303100;2023-02-22T02:03:59;5.07;;;3.30;;
7823;SDS011;3957;48.61947800;9.05303100;2023-02-22T02:05:03;4.13;;;3.03;;
7823;SDS011;3957;48.61947800;9.05303100;2023-02-22T02:06:08;4.80;;;3.17;;
7823;SDS011;3957;48.61947800;9.05303100;2023-02-22T02:07:14;6.85;;;3.60;;
7823;SDS011;3957;48.61947800;9.05303100;2023-02-22T02:10:45;5.90;;;3.70;;
7823;SDS011;3957;48.61947800;9.05303100;2023-02-22T02:11:47;5.25;;;3.83;;
7823;SDS011;3957;48.61947800;9.05303100;2023-02-22T02:12:49;6.50;;;3.70;;
7823;SDS011;3957;48.61947800;9.05303100;2023-02-22T02:13:56;6.05;;;3.70;;
7823;SDS011;3957;48.61947800;9.05303100;2023-02-22T02:16:37;6.05;;;3.70;;
7823;SDS011;3957;48.61947800;9.05303100;2023-02-22T02:17:43;6.28;;;3.90;;
7823;SDS011;3957;48.61947800;9.05303100;2023-02-22T02:18:44;6.50;;;4.05;;
7823;SDS011;3957;48.61947800;9.05303100;2023-02-22T02:24:08;5.18;;;3.30;;
7823;SDS011;3957;48.61947800;9.05303100;2023-02-22T02:25:29;6.53;;;3.80;;
7823;SDS011;3957;48.61947800;9.05303100;2023-02-22T02:26:54;6.50;;;3.97;;
7823;SDS011;3957;48.61947800;9.05303100;2023-02-22T02:33:41;5.30;;;3.30;;
7823;SDS011;3957;48.61947800;9.05303100;2023-02-22T02:35:17;6.13;;;3.67;;
7823;SDS011;3957;48.61947800;9.05303100;2023-02-22T02:38:43;7.22;;;4.28;;
7823;SDS011;3957;48.61947800;9.05303100;2023-02-22T02:41:32;8.52;;;3.83;;
7823;SDS011;3957;48.61947800;9.05303100;2023-02-22T02:42:38;5.85;;;4.20;;
7823;SDS011;3957;48.61947800;9.05303100;2023-02-22T02:43:52;5.70;;;4.03;;
7823;SDS011;3957;48.61947800;9.05303100;2023-02-22T02:45:07;6.35;;;3.80;;
7823;SDS011;3957;48.61947800;9.05303100;2023-02-22T02:46:23;5.88;;;4.10;;
7823;SDS011;3957;48.61947800;9.05303100;2023-02-22T02:47:26;8.73;;;4.50;;
7823;SDS011;3957;48.61947800;9.05303100;2023-02-22T02:48:30;6.82;;;4.20;;
7823;SDS011;3957;48.61947800;9.05303100;2023-02-22T02:49:36;6.55;;;4.18;;
7823;SDS011;3957;48.61947800;9.05303100;2023-02-22T02:50:44;6.95;;;4.10;;
7823;SDS011;3957;48.61947800;9.05303100;2023-02-22T02:51:48;7.78;;;4.70;;
7823;SDS011;3957;48.61947800;9.05303100;2023-02-22T02:52:52;6.30;;;4.05;;
7823;SDS011;3957;48.61947800;9.05303100;2023-02-22T02:53:56;6.40;;;3.83;;
7823;SDS011;3957;48.61947800;9.05303100;2023-02-22T02:54:57;8.07;;;4.40;;
7823;SDS011;3957;48.61947800;9.05303100;2023-02-22T02:55:58;7.40;;;4.57;;
7823;SDS011;3957;48.61947800;9.05303100;2023-02-22T02:57:01;5.70;;;4.20;;
7823;SDS011;3957;48.61947800;9.05303100;2023-02-22T02:58:03;8.90;;;4.38;;
7823;SDS011;3957;48.61947800;9.05303100;2023-02-22T02:59:21;5.80;;;4.03;;
7823;SDS011;3957;48.61947800;9.05303100;2023-02-22T03:00:27;7.68;;;4.35;;
7823;SDS011;3957;48.61947800;9.05303100;2023-02-22T03:01:44;8.57;;;4.43;;
7823;SDS011;3957;48.61947800;9.05303100;2023-02-22T03:04:23;8.00;;;4.57;;
7823;SDS011;3957;48.61947800;9.05303100;2023-02-22T03:08:03;6.57;;;4.47;;
7823;SDS011;3957;48.61947800;9.05303100;2023-02-22T03:09:15;6.82;;;4.13;;
7823;SDS011;3957;48.61947800;9.05303100;2023-02-22T03:10:33;8.77;;;4.90;;
7823;SDS011;3957;48.61947800;9.05303100;2023-02-22T03:13:22;7.93;;;4.55;;
7823;SDS011;3957;48.61947800;9.05303100;2023-02-22T03:19:49;6.50;;;4.32;;
7823;SDS011;3957;48.61947800;9.05303100;2023-02-22T03:21:05;6.50;;;4.50;;
7823;SDS011;3957;48.61947800;9.05303100;2023-02-22T03:22:24;7.88;;;4.97;;
7823;SDS011;3957;48.61947800;9.05303100;2023-02-22T03:24:55;7.32;;;4.55;;
7823;SDS011;3957;48.61947800;9.05303100;2023-02-22T03:26:05;8.18;;;4.50;;
7823;SDS011;3957;48.61947800;9.05303100;2023-02-22T03:27:13;5.95;;;4.28;;
7823;SDS011;3957;48.61947800;9.05303100;2023-02-22T03:28:20;7.85;;;4.10;;
7823;SDS011;3957;48.61947800;9.05303100;2023-02-22T03:29:25;7.45;;;3.83;;
7823;SDS011;3957;48.61947800;9.05303100;2023-02-22T03:30:40;6.28;;;4.53;;
7823;SDS011;3957;48.61947800;9.05303100;2023-02-22T03:31:47;6.45;;;4.30;;
7823;SDS011;3957;48.61947800;9.05303100;2023-02-22T03:32:59;5.85;;;4.30;;
7823;SDS011;3957;48.61947800;9.05303100;2023-02-22T03:34:19;6.68;;;4.03;;
7823;SDS011;3957;48.61947800;9.05303100;2023-02-22T03:35:24;6.60;;;4.35;;
7823;SDS011;3957;48.61947800;9.05303100;2023-02-22T03:36:32;7.60;;;4.20;;
7823;SDS011;3957;48.61947800;9.05303100;2023-02-22T03:37:42;6.45;;;4.10;;
7823;SDS011;3957;48.61947800;9.05303100;2023-02-22T03:38:44;5.65;;;4.28;;
7823;SDS011;3957;48.61947800;9.05303100;2023-02-22T03:39:48;9.13;;;4.65;;
7823;SDS011;3957;48.61947800;9.05303100;2023-02-22T03:40:53;5.90;;;3.72;;
7823;SDS011;3957;48.61947800;9.05303100;2023-02-22T03:42:08;6.78;;;4.43;;
7823;SDS011;3957;48.61947800;9.05303100;2023-02-22T03:43:13;6.65;;;4.53;;
7823;SDS011;3957;48.61947800;9.05303100;2023-02-22T03:44:20;7.78;;;4.57;;
7823;SDS011;3957;48.61947800;9.05303100;2023-02-22T03:45:26;7.70;;;4.60;;
7823;SDS011;3957;48.61947800;9.05303100;2023-02-22T03:46:30;6.88;;;4.20;;
7823;SDS011;3957;48.61947800;9.05303100;2023-02-22T03:47:40;7.75;;;4.93;;
7823;SDS011;3957;48.61947800;9.05303100;2023-02-22T03:48:56;7.35;;;4.90;;
7823;SDS011;3957;48.61947800;9.05303100;2023-02-22T03:50:22;6.28;;;4.68;;
7823;SDS011;3957;48.61947800;9.05303100;2023-02-22T03:51:29;5.35;;;4.55;;
7823;SDS011;3957;48.61947800;9.05303100;2023-02-22T03:52:33;5.53;;;4.18;;
7823;SDS011;3957;48.61947800;9.05303100;2023-02-22T03:53:34;6.03;;;4.28;;
7823;SDS011;3957;48.61947800;9.05303100;2023-02-22T03:54:39;8.27;;;4.82;;
7823;SDS011;3957;48.61947800;9.05303100;2023-02-22T03:55:40;7.32;;;4.63;;
7823;SDS011;3957;48.61947800;9.05303100;2023-02-22T03:56:44;8.07;;;4.53;;
7823;SDS011;3957;48.61947800;9.05303100;2023-02-22T03:57:56;7.05;;;4.22;;
7823;SDS011;3957;48.61947800;9.05303100;2023-02-22T03:58:59;8.07;;;4.55;;
7823;SDS011;3957;48.61947800;9.05303100;2023-02-22T03:59:59;10.93;;;7.20;;
7823;SDS011;3957;48.61947800;9.05303100;2023-02-22T04:01:00;19.27;;;11.20;;
7823;SDS011;3957;48.61947800;9.05303100;2023-02-22T04:02:00;17.90;;;9.80;;
7823;SDS011;3957;48.61947800;9.05303100;2023-02-22T04:03:01;13.05;;;7.80;;
7823;SDS011;3957;48.61947800;9.05303100;2023-02-22T04:04:03;23.33;;;13.20;;
7823;SDS011;3957;48.61947800;9.05303100;2023-02-22T04:05:04;45.47;;;26.13;;
7823;SDS011;3957;48.61947800;9.05303100;2023-02-22T04:06:05;46.05;;;25.42;;
7823;SDS011;3957;48.61947800;9.05303100;2023-02-22T04:07:06;35.10;;;20.10;;
7823;SDS011;3957;48.61947800;9.05303100;2023-02-22T04:08:06;23.40;;;14.43;;
7823;SDS011;3957;48.61947800;9.05303100;2023-02-22T04:09:07;15.30;;;9.30;;
7823;SDS011;3957;48.61947800;9.05303100;2023-02-22T04:10:08;11.70;;;6.63;;
7823;SDS011;3957;48.61947800;9.05303100;2023-02-22T04:11:11;8.90;;;5.38;;
7823;SDS011;3957;48.61947800;9.05303100;2023-02-22T04:12:12;7.05;;;4.20;;
7823;SDS011;3957;48.61947800;9.05303100;2023-02-22T04:13:26;6.40;;;4.63;;
7823;SDS011;3957;48.61947800;9.05303100;2023-02-22T04:14:27;6.38;;;4.30;;
7823;SDS011;3957;48.61947800;9.05303100;2023-02-22T04:15:30;5.88;;;4.30;;
7823;SDS011;3957;48.61947800;9.05303100;2023-02-22T04:16:37;6.47;;;4.10;;
7823;SDS011;3957;48.61947800;9.05303100;2023-02-22T04:17:40;5.38;;;3.90;;
7823;SDS011;3957;48.61947800;9.05303100;2023-02-22T04:18:44;5.63;;;3.83;;
7823;SDS011;3957;48.61947800;9.05303100;2023-02-22T04:19:46;6.60;;;4.40;;
7823;SDS011;3957;48.61947800;9.05303100;2023-02-22T04:20:47;6.18;;;4.20;;
7823;SDS011;3957;48.61947800;9.05303100;2023-02-22T04:21:56;5.45;;;4.18;;
7823;SDS011;3957;48.61947800;9.05303100;2023-02-22T04:22:59;5.22;;;4.03;;
7823;SDS011;3957;48.61947800;9.05303100;2023-02-22T04:23:59;6.20;;;4.28;;
7823;SDS011;3957;48.61947800;9.05303100;2023-02-22T04:25:00;6.57;;;4.53;;
7823;SDS011;3957;48.61947800;9.05303100;2023-02-22T04:26:01;5.80;;;4.53;;
7823;SDS011;3957;48.61947800;9.05303100;2023-02-22T04:27:03;7.30;;;4.82;;
7823;SDS011;3957;48.61947800;9.05303100;2023-02-22T04:28:06;8.40;;;4.47;;
7823;SDS011;3957;48.61947800;9.05303100;2023-02-22T04:29:20;7.57;;;4.28;;
7823;SDS011;3957;48.61947800;9.05303100;2023-02-22T04:30:22;5.95;;;3.90;;
7823;SDS011;3957;48.61947800;9.05303100;2023-02-22T04:31:23;6.93;;;3.90;;
7823;SDS011;3957;48.61947800;9.05303100;2023-02-22T04:32:25;6.03;;;4.10;;
7823;SDS011;3957;48.61947800;9.05303100;2023-02-22T04:33:26;6.03;;;4.43;;
7823;SDS011;3957;48.61947800;9.05303100;2023-02-22T04:34:27;9.50;;;4.80;;
7823;SDS011;3957;48.61947800;9.05303100;2023-02-22T04:35:27;6.70;;;4.32;;
7823;SDS011;3957;48.61947800;9.05303100;2023-02-22T04:36:28;6.17;;;4.57;;
7823;SDS011;3957;48.61947800;9.05303100;2023-02-22T04:37:32;7.57;;;4.47;;
7823;SDS011;3957;48.61947800;9.05303100;2023-02-22T04:38:35;7.38;;;4.60;;
7823;SDS011;3957;48.61947800;9.05303100;2023-02-22T04:39:36;5.90;;;4.20;;
7823;SDS011;3957;48.61947800;9.05303100;2023-02-22T04:40:36;8.00;;;4.90;;
7823;SDS011;3957;48.61947800;9.05303100;2023-02-22T04:41:37;6.97;;;4.60;;
7823;SDS011;3957;48.61947800;9.05303100;2023-02-22T04:42:37;8.95;;;5.75;;
7823;SDS011;3957;48.61947800;9.05303100;2023-02-22T04:43:39;8.25;;;5.47;;
7823;SDS011;3957;48.61947800;9.05303100;2023-02-22T04:44:54;10.13;;;5.55;;
7823;SDS011;3957;48.61947800;9.05303100;2023-02-22T04:45:55;8.30;;;5.53;;
7823;SDS011;3957;48.61947800;9.05303100;2023-02-22T04:46:56;8.18;;;5.00;;
7823;SDS011;3957;48.61947800;9.05303100;2023-02-22T04:47:57;8.73;;;5.50;;
7823;SDS011;3957;48.61947800;9.05303100;2023-02-22T04:48:57;8.80;;;5.38;;
7823;SDS011;3957;48.61947800;9.05303100;2023-02-22T04:50:01;7.90;;;5.30;;
7823;SDS011;3957;48.61947800;9.05303100;2023-02-22T04:51:03;8.83;;;5.17;;
7823;SDS011;3957;48.61947800;9.05303100;2023-02-22T04:52:05;9.52;;;5.38;;
7823;SDS011;3957;48.61947800;9.05303100;2023-02-22T04:53:09;7.00;;;5.13;;
7823;SDS011;3957;48.61947800;9.05303100;2023-02-22T04:54:11;8.88;;;4.65;;
7823;SDS011;3957;48.61947800;9.05303100;2023-02-22T04:55:16;9.45;;;5.28;;
7823;SDS011;3957;48.61947800;9.05303100;2023-02-22T04:56:17;6.80;;;4.90;;
7823;SDS011;3957;48.61947800;9.05303100;2023-02-22T04:57:19;10.63;;;5.60;;
7823;SDS011;3957;48.61947800;9.05303100;2023-02-22T04:58:19;10.35;;;5.50;;
7823;SDS011;3957;48.61947800;9.05303100;2023-02-22T04:59:21;6.40;;;5.07;;
7823;SDS011;3957;48.61947800;9.05303100;2023-02-22T05:00:27;7.70;;;5.20;;
7823;SDS011;3957;48.61947800;9.05303100;2023-02-22T05:01:36;8.20;;;4.97;;
7823;SDS011;3957;48.61947800;9.05303100;2023-02-22T05:02:38;5.95;;;4.70;;
7823;SDS011;3957;48.61947800;9.05303100;2023-02-22T05:03:38;7.50;;;4.93;;
7823;SDS011;3957;48.61947800;9.05303100;2023-02-22T05:04:39;6.33;;;4.53;;
7823;SDS011;3957;48.61947800;9.05303100;2023-02-22T05:05:39;7.65;;;5.10;;
7823;SDS011;3957;48.61947800;9.05303100;2023-02-22T05:06:40;7.47;;;4.73;;
7823;SDS011;3957;48.61947800;9.05303100;2023-02-22T05:07:40;7.70;;;5.23;;
7823;SDS011;3957;48.61947800;9.05303100;2023-02-22T05:08:41;7.60;;;5.15;;
7823;SDS011;3957;48.61947800;9.05303100;2023-02-22T05:09:41;7.50;;;4.80;;
7823;SDS011;3957;48.61947800;9.05303100;2023-02-22T05:10:42;6.37;;;4.83;;
7823;SDS011;3957;48.61947800;9.05303100;2023-02-22T05:11:43;6.93;;;4.87;;
7823;SDS011;3957;48.61947800;9.05303100;2023-02-22T05:12:43;8.15;;;4.90;;
7823;SDS011;3957;48.61947800;9.05303100;2023-02-22T05:13:44;7.60;;;5.00;;
7823;SDS011;3957;48.61947800;9.05303100;2023-02-22T05:14:44;7.25;;;5.15;;
7823;SDS011;3957;48.61947800;9.05303100;2023-02-22T05:15:44;7.37;;;4.73;;
7823;SDS011;3957;48.61947800;9.05303100;2023-02-22T05:16:46;6.72;;;4.53;;
7823;SDS011;3957;48.61947800;9.05303100;2023-02-22T05:17:47;8.77;;;5.20;;
7823;SDS011;3957;48.61947800;9.05303100;2023-02-22T05:18:48;8.17;;;5.03;;
7823;SDS011;3957;48.61947800;9.05303100;2023-02-22T05:19:48;9.00;;;4.93;;
7823;SDS011;3957;48.61947800;9.05303100;2023-02-22T05:20:49;8.30;;;4.83;;
7823;SDS011;3957;48.61947800;9.05303100;2023-02-22T05:21:49;7.85;;;4.70;;
7823;SDS011;3957;48.61947800;9.05303100;2023-02-22T05:22:50;8.03;;;4.93;;
7823;SDS011;3957;48.61947800;9.05303100;2023-02-22T05:23:51;9.17;;;5.10;;
7823;SDS011;3957;48.61947800;9.05303100;2023-02-22T05:24:51;10.23;;;5.23;;
7823;SDS011;3957;48.61947800;9.05303100;2023-02-22T05:25:51;7.68;;;5.38;;
7823;SDS011;3957;48.61947800;9.05303100;2023-02-22T05:26:52;7.90;;;5.20;;
7823;SDS011;3957;48.61947800;9.05303100;2023-02-22T05:27:53;7.70;;;4.90;;
7823;SDS011;3957;48.61947800;9.05303100;2023-02-22T05:28:56;7.15;;;4.70;;
7823;SDS011;3957;48.61947800;9.05303100;2023-02-22T05:29:56;7.07;;;4.53;;
7823;SDS011;3957;48.61947800;9.05303100;2023-02-22T05:30:57;7.22;;;5.38;;
7823;SDS011;3957;48.61947800;9.05303100;2023-02-22T05:31:57;7.30;;;4.53;;
7823;SDS011;3957;48.61947800;9.05303100;2023-02-22T05:32:58;6.75;;;4.80;;
7823;SDS011;3957;48.61947800;9.05303100;2023-02-22T05:33:59;7.93;;;5.30;;
7823;SDS011;3957;48.61947800;9.05303100;2023-02-22T05:34:59;7.00;;;4.70;;
7823;SDS011;3957;48.61947800;9.05303100;2023-02-22T05:35:59;8.50;;;5.20;;
7823;SDS011;3957;48.61947800;9.05303100;2023-02-22T05:37:00;8.20;;;5.17;;
7823;SDS011;3957;48.61947800;9.05303100;2023-02-22T05:38:02;7.53;;;5.15;;
7823;SDS011;3957;48.61947800;9.05303100;2023-02-22T05:39:04;7.93;;;5.45;;
7823;SDS011;3957;48.61947800;9.05303100;2023-02-22T05:40:04;8.53;;;4.80;;
7823;SDS011;3957;48.61947800;9.05303100;2023-02-22T05:41:06;10.10;;;5.50;;
7823;SDS011;3957;48.61947800;9.05303100;2023-02-22T05:42:07;7.47;;;5.30;;
7823;SDS011;3957;48.61947800;9.05303100;2023-02-22T05:43:08;7.35;;;5.20;;
7823;SDS011;3957;48.61947800;9.05303100;2023-02-22T05:44:08;7.35;;;5.20;;
7823;SDS011;3957;48.61947800;9.05303100;2023-02-22T05:45:11;7.60;;;4.85;;
7823;SDS011;3957;48.61947800;9.05303100;2023-02-22T05:46:13;7.43;;;5.32;;
7823;SDS011;3957;48.61947800;9.05303100;2023-02-22T05:47:13;9.45;;;5.38;;
7823;SDS011;3957;48.61947800;9.05303100;2023-02-22T05:48:14;8.10;;;5.37;;
7823;SDS011;3957;48.61947800;9.05303100;2023-02-22T05:49:14;9.02;;;5.40;;
7823;SDS011;3957;48.61947800;9.05303100;2023-02-22T05:50:16;8.43;;;5.40;;
7823;SDS011;3957;48.61947800;9.05303100;2023-02-22T05:51:17;8.75;;;4.97;;
7823;SDS011;3957;48.61947800;9.05303100;2023-02-22T05:52:18;6.15;;;4.55;;
7823;SDS011;3957;48.61947800;9.05303100;2023-02-22T05:53:18;9.07;;;4.80;;
7823;SDS011;3957;48.61947800;9.05303100;2023-02-22T05:54:19;9.13;;;5.18;;
7823;SDS011;3957;48.61947800;9.05303100;2023-02-22T05:55:20;8.13;;;4.83;;
7823;SDS011;3957;48.61947800;9.05303100;2023-02-22T05:56:25;7.80;;;5.40;;
7823;SDS011;3957;48.61947800;9.05303100;2023-02-22T05:57:27;6.93;;;5.07;;
7823;SDS011;3957;48.61947800;9.05303100;2023-02-22T05:58:28;8.33;;;4.77;;
7823;SDS011;3957;48.61947800;9.05303100;2023-02-22T05:59:28;6.75;;;4.63;;
7823;SDS011;3957;48.61947800;9.05303100;2023-02-22T06:00:29;6.78;;;5.22;;
7823;SDS011;3957;48.61947800;9.05303100;2023-02-22T06:01:30;6.80;;;5.20;;
7823;SDS011;3957;48.61947800;9.05303100;2023-02-22T06:02:31;8.88;;;5.28;;
7823;SDS011;3957;48.61947800;9.05303100;2023-02-22T06:03:32;8.52;;;5.03;;
7823;SDS011;3957;48.61947800;9.05303100;2023-02-22T06:04:32;8.17;;;4.90;;
7823;SDS011;3957;48.61947800;9.05303100;2023-02-22T06:05:32;8.10;;;4.67;;
7823;SDS011;3957;48.61947800;9.05303100;2023-02-22T06:06:34;7.40;;;5.07;;
7823;SDS011;3957;48.61947800;9.05303100;2023-02-22T06:07:34;7.45;;;5.25;;
7823;SDS011;3957;48.61947800;9.05303100;2023-02-22T06:08:34;11.50;;;5.70;;
7823;SDS011;3957;48.61947800;9.05303100;2023-02-22T06:09:35;8.60;;;5.13;;
7823;SDS011;3957;48.61947800;9.05303100;2023-02-22T06:10:35;7.60;;;5.07;;
7823;SDS011;3957;48.61947800;9.05303100;2023-02-22T06:11:36;8.97;;;5.43;;